createdAt,value
2019-01-26T00:00:40.014Z,17.47
2019-01-26T00:03:07.453Z,16.50
2019-01-26T00:05:34.967Z,18.00
2019-01-26T00:08:02.249Z,14.90
2019-01-26T00:10:29.506Z,16.00
2019-01-26T00:12:56.998Z,15.73
2019-01-26T00:15:24.280Z,15.87
2019-01-26T00:17:51.562Z,14.67
2019-01-26T00:20:18.809Z,12.80
2019-01-26T00:22:46.338Z,16.67
2019-01-26T00:25:13.596Z,13.30
2019-01-26T00:27:40.926Z,13.77
2019-01-26T00:30:10.001Z,13.13
2019-01-26T00:32:37.249Z,13.63
2019-01-26T00:35:05.458Z,11.57
2019-01-26T00:37:32.730Z,13.50
2019-01-26T00:40:00.302Z,10.47
2019-01-26T00:42:27.583Z,13.17
2019-01-26T00:44:54.856Z,9.50
2019-01-26T00:47:22.390Z,11.10
2019-01-26T00:49:49.909Z,8.90
2019-01-26T00:52:17.430Z,8.27
2019-01-26T00:54:44.767Z,8.53
2019-01-26T00:57:12.033Z,7.63
2019-01-26T00:59:39.340Z,9.50
2019-01-26T01:02:06.682Z,9.40
2019-01-26T01:04:34.033Z,9.57
2019-01-26T01:07:04.017Z,6.53
2019-01-26T01:09:31.293Z,6.90
2019-01-26T01:11:58.555Z,7.33
2019-01-26T01:14:25.911Z,6.10
2019-01-26T01:16:53.222Z,6.43
2019-01-26T01:19:20.517Z,6.77
2019-01-26T01:21:47.782Z,9.23
2019-01-26T01:24:15.158Z,6.77
2019-01-26T01:26:42.430Z,7.00
2019-01-26T01:29:09.986Z,7.90
2019-01-26T01:31:37.225Z,5.90
2019-01-26T01:34:04.536Z,5.57
2019-01-26T01:36:32.073Z,6.97
2019-01-26T01:38:59.601Z,5.10
2019-01-26T01:41:26.922Z,6.30
2019-01-26T01:43:54.869Z,6.10
2019-01-26T01:46:22.221Z,8.77
2019-01-26T01:48:49.461Z,7.67
2019-01-26T01:51:16.726Z,6.57
2019-01-26T01:53:44.066Z,8.17
2019-01-26T01:56:11.675Z,8.00
2019-01-26T01:58:39.075Z,7.63
2019-01-26T02:01:06.338Z,6.00
2019-01-26T02:03:33.852Z,5.70
2019-01-26T02:06:01.121Z,5.87
2019-01-26T02:08:28.371Z,6.83
2019-01-26T02:10:55.605Z,7.80
2019-01-26T02:13:22.870Z,6.77
2019-01-26T02:15:50.112Z,5.47
2019-01-26T02:18:17.383Z,6.27
2019-01-26T02:20:44.625Z,6.50
2019-01-26T02:23:11.974Z,5.33
2019-01-26T02:25:39.248Z,7.33
2019-01-26T02:28:06.490Z,6.87
2019-01-26T02:30:34.050Z,7.60
2019-01-26T02:33:01.323Z,5.97
2019-01-26T02:35:28.835Z,7.57
2019-01-26T02:37:56.076Z,8.83
2019-01-26T02:40:23.585Z,6.63
2019-01-26T02:42:50.859Z,6.20
2019-01-26T02:45:18.175Z,7.27
2019-01-26T02:47:45.500Z,7.30
2019-01-26T02:50:17.064Z,10.10
2019-01-26T02:52:44.665Z,8.13
2019-01-26T02:55:12.371Z,7.30
2019-01-26T02:57:39.646Z,6.60
2019-01-26T03:00:08.417Z,8.23
2019-01-26T03:02:35.689Z,6.67
2019-01-26T03:05:04.407Z,6.83
2019-01-26T03:07:31.674Z,6.73
2019-01-26T03:09:58.956Z,7.63
2019-01-26T03:12:26.289Z,7.63
2019-01-26T03:14:53.806Z,6.13
2019-01-26T03:17:21.082Z,7.53
2019-01-26T03:19:48.321Z,7.50
2019-01-26T03:22:15.666Z,8.27
2019-01-26T03:24:42.947Z,6.67
2019-01-26T03:27:10.193Z,6.77
2019-01-26T03:29:37.726Z,6.97
2019-01-26T03:32:04.971Z,8.07
2019-01-26T03:34:32.243Z,7.33
2019-01-26T03:36:59.486Z,10.97
2019-01-26T03:39:26.749Z,7.77
2019-01-26T03:41:53.991Z,7.30
2019-01-26T03:44:21.257Z,8.67
2019-01-26T03:46:48.574Z,6.57
2019-01-26T03:49:15.857Z,8.40
2019-01-26T03:51:43.166Z,6.27
2019-01-26T03:54:10.439Z,6.70
2019-01-26T03:56:37.947Z,6.07
2019-01-26T03:59:05.290Z,6.10
2019-01-26T04:01:32.787Z,7.20
2019-01-26T04:04:00.313Z,6.37
2019-01-26T04:06:27.630Z,6.70
2019-01-26T04:08:54.897Z,6.40
2019-01-26T04:11:22.242Z,6.40
2019-01-26T04:13:49.489Z,6.00
2019-01-26T04:16:17.022Z,5.87
2019-01-26T04:18:44.274Z,6.00
2019-01-26T04:21:11.554Z,5.90
2019-01-26T04:23:38.808Z,5.57
2019-01-26T04:26:06.083Z,5.87
2019-01-26T04:28:33.350Z,6.20
2019-01-26T04:31:00.618Z,5.93
2019-01-26T04:33:27.891Z,5.50
2019-01-26T04:35:55.382Z,6.03
2019-01-26T04:38:22.658Z,5.20
2019-01-26T04:40:49.898Z,6.97
2019-01-26T04:43:17.175Z,6.13
2019-01-26T04:45:44.439Z,5.53
2019-01-26T04:48:11.933Z,6.17
2019-01-26T04:50:39.208Z,6.63
2019-01-26T04:53:06.453Z,6.70
2019-01-26T04:55:33.725Z,7.00
2019-01-26T04:58:01.234Z,6.23
2019-01-26T05:00:28.577Z,5.90
2019-01-26T05:02:55.818Z,5.90
2019-01-26T05:05:23.159Z,6.83
2019-01-26T05:07:50.434Z,7.90
2019-01-26T05:10:18.887Z,6.60
2019-01-26T05:12:46.437Z,7.13
2019-01-26T05:15:14.515Z,6.53
2019-01-26T05:17:41.827Z,7.03
2019-01-26T05:20:10.774Z,7.07
2019-01-26T05:22:38.015Z,7.37
2019-01-26T05:25:05.447Z,7.97
2019-01-26T05:27:32.717Z,6.97
2019-01-26T05:29:59.964Z,8.30
2019-01-26T05:32:27.313Z,7.33
2019-01-26T05:34:54.558Z,7.67
2019-01-26T05:37:22.042Z,6.90
2019-01-26T05:39:49.313Z,7.57
2019-01-26T05:42:16.626Z,7.90
2019-01-26T05:44:43.906Z,9.50
2019-01-26T05:47:11.185Z,7.63
2019-01-26T05:49:38.433Z,9.17
2019-01-26T05:52:05.669Z,6.93
2019-01-26T05:54:32.941Z,7.40
2019-01-26T05:57:00.189Z,9.07
2019-01-26T05:59:27.725Z,6.87
2019-01-26T06:01:54.981Z,9.10
2019-01-26T06:04:22.249Z,7.93
2019-01-26T06:06:49.510Z,8.60
2019-01-26T06:09:17.057Z,7.70
2019-01-26T06:11:44.553Z,8.40
2019-01-26T06:14:11.794Z,8.03
2019-01-26T06:16:39.065Z,7.87
2019-01-26T06:19:06.616Z,7.93
2019-01-26T06:21:33.933Z,7.20
2019-01-26T06:24:01.417Z,7.40
2019-01-26T06:26:29.102Z,7.47
2019-01-26T06:28:56.527Z,6.37
2019-01-26T06:31:23.802Z,7.43
2019-01-26T06:33:51.069Z,7.57
2019-01-26T06:36:18.316Z,7.07
2019-01-26T06:38:45.585Z,6.93
2019-01-26T06:41:12.825Z,7.73
2019-01-26T06:43:40.142Z,7.13
2019-01-26T06:46:07.941Z,8.43
2019-01-26T06:48:35.273Z,7.10
2019-01-26T06:51:02.545Z,8.43
2019-01-26T06:53:30.448Z,7.33
2019-01-26T06:55:57.900Z,7.73
2019-01-26T06:58:25.274Z,9.93
2019-01-26T07:00:52.635Z,6.60
2019-01-26T07:03:20.794Z,6.53
2019-01-26T07:05:49.898Z,6.10
2019-01-26T07:08:17.647Z,7.87
2019-01-26T07:10:45.021Z,7.27
2019-01-26T07:13:12.343Z,7.97
2019-01-26T07:15:39.697Z,9.03
2019-01-26T07:18:09.663Z,8.63
2019-01-26T07:20:36.253Z,9.10
2019-01-26T07:23:03.573Z,10.20
2019-01-26T07:25:30.845Z,8.90
2019-01-26T07:27:58.117Z,10.87
2019-01-26T07:30:25.832Z,9.40
2019-01-26T07:32:53.076Z,6.93
2019-01-26T07:35:20.522Z,9.00
2019-01-26T07:37:47.800Z,7.13
2019-01-26T07:40:16.577Z,6.10
2019-01-26T07:42:43.844Z,6.47
2019-01-26T07:45:11.836Z,7.23
2019-01-26T07:47:39.106Z,6.60
2019-01-26T07:50:10.790Z,6.83
2019-01-26T07:52:38.369Z,8.73
2019-01-26T07:55:07.090Z,7.53
2019-01-26T07:57:34.617Z,8.50
2019-01-26T08:00:01.859Z,8.20
2019-01-26T08:02:29.651Z,7.00
2019-01-26T08:04:56.897Z,5.90
2019-01-26T08:07:24.138Z,7.33
2019-01-26T08:09:51.418Z,7.17
2019-01-26T08:12:18.662Z,8.13
2019-01-26T08:14:45.901Z,9.10
2019-01-26T08:17:13.434Z,6.97
2019-01-26T08:19:40.934Z,7.50
2019-01-26T08:22:08.208Z,6.80
2019-01-26T08:24:35.457Z,6.90
2019-01-26T08:27:02.997Z,6.17
2019-01-26T08:29:30.368Z,5.80
2019-01-26T08:31:57.670Z,6.80
2019-01-26T08:34:24.946Z,5.20
2019-01-26T08:36:52.270Z,6.90
2019-01-26T08:39:19.762Z,6.87
2019-01-26T08:41:47.029Z,5.97
2019-01-26T08:44:14.305Z,5.90
2019-01-26T08:46:41.805Z,5.90
2019-01-26T08:49:09.243Z,6.10
2019-01-26T08:51:36.716Z,4.87
2019-01-26T08:54:04.086Z,6.10
2019-01-26T08:56:31.358Z,5.37
2019-01-26T08:58:58.631Z,5.47
2019-01-26T09:01:26.126Z,5.00
2019-01-26T09:03:55.270Z,5.23
2019-01-26T09:06:24.195Z,5.53
2019-01-26T09:08:51.515Z,6.30
2019-01-26T09:11:19.057Z,6.10
2019-01-26T09:13:46.373Z,5.10
2019-01-26T09:16:13.717Z,7.93
2019-01-26T09:18:41.041Z,4.63
2019-01-26T09:21:08.312Z,5.17
2019-01-26T09:23:35.553Z,5.47
2019-01-26T09:26:03.141Z,5.30
2019-01-26T09:28:30.453Z,5.13
2019-01-26T09:30:57.804Z,5.10
2019-01-26T09:33:25.109Z,4.40
2019-01-26T09:35:52.417Z,4.90
2019-01-26T09:38:19.794Z,4.47
2019-01-26T09:40:47.293Z,4.30
2019-01-26T09:43:14.603Z,4.20
2019-01-26T09:45:42.144Z,5.17
2019-01-26T09:48:09.481Z,4.90
2019-01-26T09:53:58.073Z,4.10
2019-01-26T09:56:25.557Z,4.60
2019-01-26T09:58:53.096Z,4.70
2019-01-26T10:01:20.456Z,5.10
2019-01-26T10:03:47.702Z,5.17
2019-01-26T10:06:15.010Z,3.90
2019-01-26T10:08:42.291Z,4.10
2019-01-26T10:11:09.784Z,6.00
2019-01-26T10:13:37.054Z,5.60
2019-01-26T10:16:04.549Z,5.30
2019-01-26T10:18:32.082Z,5.50
2019-01-26T10:20:59.399Z,5.03
2019-01-26T10:23:26.750Z,5.13
2019-01-26T10:25:54.003Z,4.67
2019-01-26T10:28:21.351Z,4.00
2019-01-26T10:30:50.489Z,3.93
2019-01-26T10:33:17.914Z,4.57
2019-01-26T10:35:55.543Z,3.20
2019-01-26T10:38:23.070Z,4.10
2019-01-26T10:40:54.935Z,3.77
2019-01-26T10:43:23.914Z,4.00
2019-01-26T10:45:51.263Z,4.47
2019-01-26T10:48:18.802Z,4.50
2019-01-26T10:50:46.050Z,3.27
2019-01-26T10:53:13.338Z,3.83
2019-01-26T10:55:40.848Z,4.57
2019-01-26T10:58:08.177Z,3.10
2019-01-26T11:00:35.536Z,4.10
2019-01-26T11:03:02.782Z,4.17
2019-01-26T11:05:30.196Z,2.83
2019-01-26T11:07:57.438Z,3.33
2019-01-26T11:10:24.853Z,3.40
2019-01-26T11:12:52.103Z,4.10
2019-01-26T11:15:19.454Z,3.33
2019-01-26T11:17:46.968Z,3.80
2019-01-26T11:20:15.261Z,3.87
2019-01-26T11:22:42.754Z,3.20
2019-01-26T11:25:10.897Z,3.90
2019-01-26T11:27:38.418Z,3.33
2019-01-26T11:30:07.446Z,3.37
2019-01-26T11:32:34.982Z,3.87
2019-01-26T11:35:02.229Z,3.90
2019-01-26T11:37:29.499Z,4.13
2019-01-26T11:39:58.402Z,3.50
2019-01-26T11:42:25.679Z,3.77
2019-01-26T11:44:57.618Z,3.03
2019-01-26T11:47:24.938Z,3.80
2019-01-26T11:49:52.742Z,3.30
2019-01-26T11:52:20.030Z,3.57
2019-01-26T11:54:48.911Z,4.20
2019-01-26T11:57:17.698Z,3.63
2019-01-26T11:59:46.583Z,4.20
2019-01-26T12:02:15.470Z,3.87
2019-01-26T12:04:44.480Z,5.20
2019-01-26T12:07:11.721Z,4.10
2019-01-26T12:09:39.034Z,3.57
2019-01-26T12:12:06.378Z,6.53
2019-01-26T12:14:33.617Z,4.43
2019-01-26T12:17:01.302Z,4.20
2019-01-26T12:19:28.570Z,3.53
2019-01-26T12:21:55.865Z,3.77
2019-01-26T12:24:23.108Z,4.30
2019-01-26T12:26:50.429Z,4.10
2019-01-26T12:29:17.785Z,3.70
2019-01-26T12:31:45.030Z,3.93
2019-01-26T12:34:12.307Z,3.73
2019-01-26T12:36:39.579Z,3.50
2019-01-26T12:39:07.762Z,5.40
2019-01-26T12:41:35.027Z,4.03
2019-01-26T12:44:02.525Z,3.30
2019-01-26T12:46:30.062Z,4.63
2019-01-26T12:48:57.582Z,4.10
2019-01-26T12:51:25.130Z,3.80
2019-01-26T12:53:52.378Z,3.73
2019-01-26T12:56:19.622Z,3.60
2019-01-26T12:58:46.886Z,4.17
2019-01-26T13:01:14.166Z,3.70
2019-01-26T13:03:41.514Z,4.70
2019-01-26T13:06:08.940Z,4.27
2019-01-26T13:08:36.491Z,3.53
2019-01-26T13:11:05.353Z,3.73
2019-01-26T13:13:32.620Z,5.10
2019-01-26T13:16:00.162Z,4.07
2019-01-26T13:18:27.700Z,3.97
2019-01-26T13:20:54.945Z,3.93
2019-01-26T13:23:22.226Z,3.70
2019-01-26T13:25:49.709Z,3.93
2019-01-26T13:28:17.245Z,4.30
2019-01-26T13:30:44.489Z,4.13
2019-01-26T13:33:11.731Z,4.83
2019-01-26T13:35:39.968Z,3.50
2019-01-26T13:38:07.534Z,4.00
2019-01-26T13:40:35.589Z,4.70
2019-01-26T13:43:02.903Z,3.90
2019-01-26T13:45:30.155Z,5.10
2019-01-26T13:47:57.426Z,4.37
2019-01-26T13:50:24.939Z,6.33
2019-01-26T13:52:52.229Z,4.63
2019-01-26T13:55:22.929Z,4.97
2019-01-26T13:57:50.518Z,4.70
2019-01-26T14:00:19.230Z,7.47
2019-01-26T14:02:46.754Z,5.33
2019-01-26T14:05:14.033Z,4.60
2019-01-26T14:07:41.278Z,4.27
2019-01-26T14:10:13.499Z,3.77
2019-01-26T14:12:40.762Z,4.10
2019-01-26T14:15:09.734Z,4.23
2019-01-26T14:17:37.246Z,4.60
2019-01-26T14:20:06.032Z,4.63
2019-01-26T14:22:33.703Z,3.63
2019-01-26T14:25:00.944Z,4.10
2019-01-26T14:27:28.213Z,3.23
2019-01-26T14:29:55.761Z,2.93
2019-01-26T14:32:23.316Z,6.63
2019-01-26T14:34:50.820Z,3.30
2019-01-26T14:37:18.086Z,3.67
2019-01-26T14:39:46.321Z,3.87
2019-01-26T14:42:13.662Z,3.50
2019-01-26T14:44:41.206Z,3.50
2019-01-26T14:47:08.725Z,3.90
2019-01-26T14:49:36.301Z,3.80
2019-01-26T14:52:03.610Z,4.73
2019-01-26T14:54:30.963Z,5.03
2019-01-26T14:56:58.282Z,3.17
2019-01-26T14:59:25.859Z,2.70
2019-01-26T15:01:53.225Z,2.97
2019-01-26T15:04:20.769Z,2.90
2019-01-26T15:06:48.206Z,3.40
2019-01-26T15:09:15.664Z,3.30
2019-01-26T15:11:42.933Z,4.50
2019-01-26T15:14:10.204Z,6.20
2019-01-26T15:16:37.804Z,7.53
2019-01-26T15:19:05.045Z,6.80
2019-01-26T15:21:32.603Z,6.70
2019-01-26T15:24:00.549Z,6.80
2019-01-26T15:26:28.437Z,7.37
2019-01-26T15:28:56.029Z,10.10
2019-01-26T15:31:23.935Z,7.50
2019-01-26T15:43:18.325Z,10.93
2019-01-26T15:45:45.817Z,7.60
2019-01-26T15:48:13.101Z,9.47
2019-01-26T15:50:41.955Z,7.13
2019-01-26T15:53:09.565Z,7.13
2019-01-26T15:55:36.833Z,8.60
2019-01-26T15:58:04.754Z,8.80
2019-01-26T16:00:33.351Z,7.33
2019-01-26T16:03:00.910Z,8.23
2019-01-26T16:05:28.411Z,7.80
2019-01-26T16:07:55.846Z,7.40
2019-01-26T16:10:23.873Z,8.97
2019-01-26T16:12:51.286Z,7.83
2019-01-26T16:15:19.699Z,6.50
2019-01-26T16:17:47.059Z,6.37
2019-01-26T16:20:20.289Z,8.00
2019-01-26T16:22:44.744Z,7.20
2019-01-26T16:25:12.160Z,6.63
2019-01-26T16:27:39.400Z,7.37
2019-01-26T16:30:17.015Z,7.30
2019-01-26T16:32:44.334Z,7.03
2019-01-26T16:35:12.777Z,6.23
2019-01-26T16:37:40.049Z,5.70
2019-01-26T16:40:11.798Z,6.97
2019-01-26T16:42:39.105Z,5.63
2019-01-26T16:45:07.890Z,6.20
2019-01-26T16:47:35.162Z,8.10
2019-01-26T16:50:02.490Z,6.03
2019-01-26T16:52:29.829Z,4.50
2019-01-26T16:54:57.704Z,5.07
2019-01-26T16:57:25.927Z,5.30
2019-01-26T16:59:53.274Z,5.40
2019-01-26T17:02:20.798Z,6.17
2019-01-26T17:04:48.115Z,5.37
2019-01-26T17:07:15.659Z,5.60
2019-01-26T17:09:42.903Z,6.30
2019-01-26T17:12:10.245Z,6.50
2019-01-26T17:14:37.529Z,5.27
2019-01-26T17:17:04.776Z,6.53
2019-01-26T17:19:32.018Z,7.97
2019-01-26T17:21:59.535Z,8.20
2019-01-26T17:24:26.858Z,7.03
2019-01-26T17:26:54.133Z,7.90
2019-01-26T17:29:21.410Z,10.50
2019-01-26T17:31:48.723Z,8.23
2019-01-26T17:34:16.070Z,8.93
2019-01-26T17:36:43.345Z,11.10
2019-01-26T17:39:10.595Z,7.87
2019-01-26T17:41:37.858Z,9.93
2019-01-26T17:44:05.102Z,9.10
2019-01-26T17:46:32.630Z,8.63
2019-01-26T17:48:59.898Z,8.67
2019-01-26T17:51:27.161Z,9.13
2019-01-26T17:53:54.441Z,6.97
2019-01-26T17:56:21.685Z,7.07
2019-01-26T17:58:48.931Z,8.00
2019-01-26T18:01:16.436Z,8.40
2019-01-26T18:03:43.783Z,6.30
2019-01-26T18:06:11.026Z,6.83
2019-01-26T18:08:38.299Z,6.80
2019-01-26T18:11:05.569Z,6.47
2019-01-26T18:13:32.834Z,7.33
2019-01-26T18:16:00.085Z,6.87
2019-01-26T18:18:27.617Z,6.63
2019-01-26T18:20:54.865Z,7.50
2019-01-26T18:23:23.765Z,6.80
2019-01-26T18:25:51.197Z,6.23
2019-01-26T18:28:18.690Z,5.97
2019-01-26T18:30:46.002Z,8.23
2019-01-26T18:33:13.905Z,6.70
2019-01-26T18:35:41.181Z,7.90
2019-01-26T18:38:08.493Z,9.70
2019-01-26T18:40:35.771Z,9.23
2019-01-26T18:43:14.895Z,8.80
2019-01-26T18:45:44.989Z,7.23
2019-01-26T18:48:12.326Z,8.17
2019-01-26T18:50:41.487Z,7.80
2019-01-26T18:53:08.759Z,7.57
2019-01-26T18:55:36.002Z,8.67
2019-01-26T18:58:03.626Z,6.13
2019-01-26T19:00:35.259Z,6.77
2019-01-26T19:03:06.698Z,6.87
2019-01-26T19:05:35.558Z,6.60
2019-01-26T19:08:03.113Z,6.53
2019-01-26T19:10:30.383Z,6.30
2019-01-26T19:12:57.621Z,7.97
2019-01-26T19:15:24.965Z,7.80
2019-01-26T19:17:52.474Z,7.10
2019-01-26T19:20:20.137Z,8.27
2019-01-26T19:22:47.659Z,8.50
2019-01-26T19:25:16.622Z,9.10
2019-01-26T19:27:45.710Z,9.53
2019-01-26T19:30:14.468Z,8.87
2019-01-26T19:32:41.797Z,8.70
2019-01-26T19:35:09.651Z,10.43
2019-01-26T19:37:37.205Z,8.60
2019-01-26T19:40:06.106Z,10.77
2019-01-26T19:42:33.358Z,10.00
2019-01-26T19:45:00.863Z,8.73
2019-01-26T19:47:28.210Z,9.27
2019-01-26T19:49:55.450Z,11.27
2019-01-26T19:52:22.723Z,9.40
2019-01-26T19:54:50.038Z,10.97
2019-01-26T19:57:17.309Z,9.00
2019-01-26T19:59:44.880Z,10.17
2019-01-26T20:02:12.179Z,12.63
2019-01-26T20:04:39.429Z,14.27
2019-01-26T20:07:06.763Z,11.93
2019-01-26T20:09:34.035Z,9.93
2019-01-26T20:12:01.361Z,11.63
2019-01-26T20:14:28.703Z,11.57
2019-01-26T20:16:56.026Z,11.13
2019-01-26T20:19:23.626Z,11.50
2019-01-26T20:21:50.947Z,10.23
2019-01-26T20:24:18.446Z,11.00
2019-01-26T20:26:45.734Z,11.77
2019-01-26T20:29:12.983Z,10.70
2019-01-26T20:31:40.262Z,10.33
2019-01-26T20:34:07.540Z,11.57
2019-01-26T20:36:35.050Z,11.53
2019-01-26T20:39:02.594Z,9.67
2019-01-26T20:41:29.922Z,10.30
2019-01-26T20:43:57.186Z,9.87
2019-01-26T20:46:25.019Z,10.67
2019-01-26T20:48:52.525Z,10.30
2019-01-26T20:51:24.881Z,9.40
2019-01-26T20:53:48.929Z,9.37
2019-01-26T20:56:16.182Z,12.10
2019-01-26T20:58:43.790Z,11.17
2019-01-26T21:01:11.137Z,11.37
2019-01-26T21:03:38.692Z,12.50
2019-01-26T21:06:06.027Z,11.43
2019-01-26T21:08:33.301Z,11.27
2019-01-26T21:11:00.582Z,11.43
2019-01-26T21:13:28.103Z,8.80
2019-01-26T21:15:55.376Z,9.40
2019-01-26T21:18:22.833Z,11.50
2019-01-26T21:20:50.102Z,10.00
2019-01-26T21:23:17.631Z,11.63
2019-01-26T21:25:44.907Z,10.33
2019-01-26T21:28:12.176Z,9.37
2019-01-26T21:30:39.458Z,9.30
2019-01-26T21:33:06.703Z,9.00
2019-01-26T21:35:34.062Z,11.30
2019-01-26T21:38:01.301Z,9.27
2019-01-26T21:40:29.534Z,8.90
2019-01-26T21:42:57.123Z,7.77
2019-01-26T21:45:24.436Z,7.50
2019-01-26T21:47:51.882Z,8.30
2019-01-26T21:50:20.196Z,5.60
2019-01-26T21:52:47.477Z,5.80
2019-01-26T21:55:15.198Z,5.87
2019-01-26T21:57:42.438Z,6.30
2019-01-26T22:00:11.241Z,7.77
2019-01-26T22:02:38.589Z,6.50
2019-01-26T22:05:07.138Z,7.07
2019-01-26T22:07:34.386Z,8.40
2019-01-26T22:10:01.633Z,6.73
2019-01-26T22:12:28.902Z,6.70
2019-01-26T22:14:56.328Z,6.70
2019-01-26T22:17:23.619Z,5.20
2019-01-26T22:19:50.862Z,6.27
2019-01-26T22:22:18.131Z,6.60
2019-01-26T22:24:45.382Z,5.80
2019-01-26T22:27:12.678Z,7.17
2019-01-26T22:29:40.019Z,6.43
2019-01-26T22:32:07.348Z,7.23
2019-01-26T22:34:34.669Z,7.20
2019-01-26T22:37:02.218Z,6.00
2019-01-26T22:39:29.477Z,7.07
2019-01-26T22:41:56.758Z,6.00
2019-01-26T22:44:23.997Z,7.00
2019-01-26T22:46:51.272Z,7.17
2019-01-26T22:49:18.762Z,6.67
2019-01-26T22:51:46.036Z,6.60
2019-01-26T22:54:13.312Z,7.37
2019-01-26T22:56:40.554Z,9.43
2019-01-26T22:59:07.826Z,7.30
2019-01-26T23:01:35.541Z,10.00
2019-01-26T23:04:04.529Z,8.30
2019-01-26T23:06:33.625Z,7.40
2019-01-26T23:09:02.734Z,8.30
2019-01-26T23:11:31.514Z,7.30
2019-01-26T23:14:16.896Z,8.40
2019-01-26T23:16:57.568Z,7.00
2019-01-26T23:19:29.446Z,7.00
2019-01-26T23:22:14.543Z,9.23
2019-01-26T23:24:43.360Z,7.47
2019-01-26T23:27:28.705Z,6.37
2019-01-26T23:29:57.515Z,6.83
2019-01-26T23:32:24.842Z,6.57
2019-01-26T23:34:52.114Z,6.23
2019-01-26T23:37:19.456Z,8.00
2019-01-26T23:39:46.999Z,9.07
2019-01-26T23:42:14.494Z,8.13
2019-01-26T23:44:41.991Z,7.43
2019-01-26T23:47:09.270Z,10.03
2019-01-26T23:49:36.763Z,7.27
2019-01-26T23:52:04.095Z,8.53
2019-01-26T23:54:31.372Z,8.40
2019-01-26T23:56:58.650Z,7.83
2019-01-26T23:59:25.889Z,7.67
